Time;durP1;ratioP1;P1;durP2;ratioP2;P2;SDS_P1;SDS_P2;PMS_P1;PMS_P2;Temp;Humidity;BMP_temperature;BMP_pressure;BME280_temperature;BME280_humidity;BME280_pressure;Samples;Min_cycle;Max_cycle;Signal;HPM_P1;HPM_P2
2023/04/10 00:01:38;;;;;;;45.57;35.27;;;6.30;99.90;;;;;;4965091;28;20205;-66
2023/04/10 00:04:04;;;;;;;51.67;37.13;;;6.20;99.90;;;;;;4970831;28;20197;-66
2023/04/10 00:06:33;;;;;;;54.33;36.73;;;6.20;99.90;;;;;;4963808;28;20216;-66
2023/04/10 00:08:58;;;;;;;49.33;36.77;;;6.20;99.90;;;;;;4947771;28;20684;-66
2023/04/10 00:11:25;;;;;;;47.63;36.67;;;6.20;99.90;;;;;;4976469;28;20209;-66
2023/04/10 00:13:51;;;;;;;50.87;37.30;;;6.10;99.90;;;;;;4975594;28;20204;-66
2023/04/10 00:16:16;;;;;;;50.70;36.87;;;6.10;99.90;;;;;;4975659;28;20758;-68
2023/04/10 00:18:42;;;;;;;47.90;34.87;;;6.10;99.90;;;;;;4974330;28;20493;-67
2023/04/10 00:21:07;;;;;;;48.60;35.27;;;6.10;99.90;;;;;;4971060;28;20197;-66
2023/04/10 00:23:36;;;;;;;52.63;35.97;;;6.00;99.90;;;;;;4975400;28;20185;-68
2023/04/10 00:26:02;;;;;;;48.20;35.93;;;5.90;99.90;;;;;;4975629;28;20240;-66
2023/04/10 00:28:27;;;;;;;49.23;36.63;;;5.90;99.90;;;;;;4975235;28;20240;-67
2023/04/10 00:30:53;;;;;;;52.43;39.07;;;5.90;99.90;;;;;;4966688;28;20319;-66
2023/04/10 00:33:18;;;;;;;54.00;37.17;;;5.80;99.90;;;;;;4975633;28;20287;-66
2023/04/10 00:35:44;;;;;;;53.27;37.77;;;5.80;99.90;;;;;;4976022;28;20271;-66
2023/04/10 00:38:09;;;;;;;49.57;36.00;;;5.80;99.90;;;;;;4975834;28;20205;-67
2023/04/10 00:40:35;;;;;;;51.17;36.90;;;5.70;99.90;;;;;;4974842;28;20201;-65
2023/04/10 00:43:01;;;;;;;55.30;37.17;;;5.80;99.90;;;;;;4975501;28;20212;-64
2023/04/10 00:45:26;;;;;;;47.03;35.90;;;5.80;99.90;;;;;;4974408;28;20324;-66
2023/04/10 00:47:53;;;;;;;59.53;38.10;;;5.80;99.90;;;;;;4975789;28;20251;-64
2023/04/10 00:50:19;;;;;;;51.00;37.87;;;5.80;99.90;;;;;;4975944;28;20205;-64
2023/04/10 00:52:45;;;;;;;51.53;36.43;;;5.70;99.90;;;;;;4975482;28;20197;-64
2023/04/10 00:55:11;;;;;;;52.93;37.13;;;5.70;99.90;;;;;;4965601;28;20225;-66
2023/04/10 00:57:36;;;;;;;53.67;37.53;;;5.60;99.90;;;;;;4975589;28;20292;-65
2023/04/10 01:00:03;;;;;;;49.97;36.60;;;5.50;99.90;;;;;;4975764;28;20194;-65
2023/04/10 01:02:30;;;;;;;56.80;37.97;;;5.50;99.90;;;;;;4975583;28;20412;-67
2023/04/10 01:04:57;;;;;;;52.50;38.20;;;5.40;99.90;;;;;;4974139;28;20201;-68
2023/04/10 01:07:41;;;;;;;53.13;37.07;;;5.40;99.90;;;;;;4959929;28;20225;-68
2023/04/10 01:10:26;;;;;;;59.23;40.03;;;5.40;99.90;;;;;;4966705;28;20205;-66
2023/04/10 01:13:06;;;;;;;49.83;36.13;;;5.40;99.90;;;;;;4965379;28;20312;-67
2023/04/10 01:15:43;;;;;;;52.67;37.60;;;5.40;99.90;;;;;;4962121;28;20257;-66
2023/04/10 01:18:21;;;;;;;51.13;36.63;;;5.40;99.90;;;;;;4967963;28;20207;-65
2023/04/10 01:20:47;;;;;;;50.17;36.37;;;5.30;99.90;;;;;;4969184;28;20232;-67
2023/04/10 01:23:41;;;;;;;51.37;35.20;;;5.40;99.90;;;;;;4969111;28;20929;-65
2023/04/10 01:26:09;;;;;;;49.43;36.23;;;5.40;99.90;;;;;;4967226;28;20787;-65
2023/04/10 01:29:03;;;;;;;53.07;36.53;;;5.40;99.90;;;;;;4970056;28;20565;-65
2023/04/10 01:31:34;;;;;;;49.33;36.37;;;5.40;99.90;;;;;;4965285;28;20237;-66
2023/04/10 01:34:06;;;;;;;49.97;35.27;;;5.40;99.90;;;;;;4967114;28;20233;-66
2023/04/10 01:36:39;;;;;;;51.87;34.77;;;5.40;99.90;;;;;;4969137;28;20786;-66
2023/04/10 01:39:05;;;;;;;52.17;35.77;;;5.40;99.90;;;;;;4970740;28;20196;-79
2023/04/10 01:41:32;;;;;;;53.93;36.73;;;5.40;99.90;;;;;;4967684;28;20208;-77
2023/04/10 01:44:02;;;;;;;55.53;36.57;;;5.40;99.90;;;;;;4970300;28;20201;-74
2023/04/10 01:46:29;;;;;;;45.13;34.57;;;5.40;99.90;;;;;;4968851;28;20699;-66
2023/04/10 01:48:55;;;;;;;53.17;34.87;;;5.40;99.90;;;;;;4965923;28;20315;-67
2023/04/10 01:51:22;;;;;;;53.63;34.63;;;5.40;99.90;;;;;;4968427;28;20205;-66
2023/04/10 01:53:50;;;;;;;47.27;35.47;;;5.40;99.90;;;;;;4969286;28;20202;-68
2023/04/10 01:56:16;;;;;;;45.50;34.30;;;5.30;99.90;;;;;;4969685;28;20224;-68
2023/04/10 01:58:42;;;;;;;40.27;33.60;;;5.30;99.90;;;;;;4969161;28;20196;-68
2023/04/10 02:01:08;;;;;;;44.90;34.07;;;5.20;99.90;;;;;;4970064;28;20777;-66
2023/04/10 02:03:34;;;;;;;50.17;35.23;;;5.10;99.90;;;;;;4975837;28;20225;-67
2023/04/10 02:06:47;;;;;;;48.90;34.60;;;5.10;99.90;;;;;;4968373;28;20534;-67
2023/04/10 02:09:22;;;;;;;46.30;32.50;;;5.10;99.90;;;;;;4959352;28;20222;-67
2023/04/10 02:11:53;;;;;;;49.13;34.77;;;5.10;99.90;;;;;;4968452;28;20667;-65
2023/04/10 02:14:21;;;;;;;48.43;32.83;;;5.10;99.90;;;;;;4968155;28;20201;-66
2023/04/10 02:16:51;;;;;;;51.77;35.30;;;5.00;99.90;;;;;;4968420;28;20707;-64
2023/04/10 02:19:18;;;;;;;46.33;34.03;;;5.00;99.90;;;;;;4964608;28;20201;-63
2023/04/10 02:21:44;;;;;;;46.03;34.80;;;5.00;99.90;;;;;;4968628;28;20237;-63
2023/04/10 02:24:09;;;;;;;54.43;37.33;;;5.00;99.90;;;;;;4970648;28;20234;-63
2023/04/10 02:26:50;;;;;;;52.00;36.23;;;4.90;99.90;;;;;;4968380;28;20208;-64
2023/04/10 02:29:16;;;;;;;49.43;35.30;;;4.90;99.90;;;;;;4968207;28;20575;-63
2023/04/10 02:31:43;;;;;;;51.23;34.77;;;4.80;99.90;;;;;;4972823;28;20208;-65
2023/04/10 02:34:09;;;;;;;51.80;36.63;;;4.80;99.90;;;;;;4973191;28;20236;-63
2023/04/10 02:36:37;;;;;;;54.13;37.57;;;4.80;99.90;;;;;;4975519;28;20213;-63
2023/04/10 02:39:03;;;;;;;51.80;36.30;;;4.80;99.90;;;;;;4967433;28;20201;-65
2023/04/10 02:41:28;;;;;;;47.07;33.30;;;4.70;99.90;;;;;;4966755;28;20208;-65
2023/04/10 02:43:54;;;;;;;45.47;35.33;;;4.80;99.90;;;;;;4965660;28;20747;-65
2023/04/10 02:46:19;;;;;;;49.80;34.40;;;4.80;99.90;;;;;;4969659;28;20201;-64
2023/04/10 02:48:45;;;;;;;53.10;35.87;;;4.80;99.90;;;;;;4969161;28;20209;-64
2023/04/10 02:51:10;;;;;;;53.50;35.13;;;4.80;99.90;;;;;;4967600;28;20208;-64
2023/04/10 02:53:36;;;;;;;51.80;36.47;;;4.70;99.90;;;;;;4966331;28;20205;-65
2023/04/10 02:56:01;;;;;;;43.80;33.00;;;4.60;99.90;;;;;;4969632;28;20239;-64
2023/04/10 02:58:29;;;;;;;52.10;34.77;;;4.60;99.90;;;;;;4980903;28;20736;-65
2023/04/10 03:00:55;;;;;;;49.10;34.27;;;4.50;99.90;;;;;;4973215;28;20204;-65
2023/04/10 03:03:20;;;;;;;45.13;33.50;;;4.50;99.90;;;;;;4977493;28;20257;-64
2023/04/10 03:05:48;;;;;;;45.40;33.90;;;4.40;99.90;;;;;;4977478;28;21100;-64
2023/04/10 03:08:16;;;;;;;46.07;33.37;;;4.40;99.90;;;;;;4977514;28;20207;-64
2023/04/10 03:10:44;;;;;;;45.20;32.83;;;4.30;99.90;;;;;;4975519;28;20205;-65
2023/04/10 03:13:09;;;;;;;51.83;34.33;;;4.30;99.90;;;;;;4977605;28;20303;-63
2023/04/10 03:15:35;;;;;;;47.70;34.40;;;4.30;99.90;;;;;;4979902;28;20222;-66
2023/04/10 03:18:01;;;;;;;43.37;32.60;;;4.30;99.90;;;;;;4968755;28;20193;-67
2023/04/10 03:20:26;;;;;;;48.53;33.17;;;4.30;99.90;;;;;;4976807;28;20200;-64
2023/04/10 03:22:52;;;;;;;48.30;32.33;;;4.30;99.90;;;;;;4976382;28;20231;-64
2023/04/10 03:25:17;;;;;;;45.07;33.07;;;4.30;99.90;;;;;;4977357;28;20274;-64
2023/04/10 03:27:43;;;;;;;53.23;35.07;;;4.20;99.90;;;;;;4976654;28;20231;-64
2023/04/10 03:30:08;;;;;;;54.87;35.67;;;4.20;99.90;;;;;;4977180;28;20207;-65
2023/04/10 03:32:34;;;;;;;41.67;32.60;;;4.20;99.90;;;;;;4977417;28;20229;-64
2023/04/10 03:34:59;;;;;;;47.70;34.23;;;4.10;99.90;;;;;;4974019;28;20394;-64
2023/04/10 03:37:26;;;;;;;49.47;32.80;;;4.10;99.90;;;;;;4977084;28;20213;-64
2023/04/10 03:39:52;;;;;;;41.43;32.60;;;4.00;99.90;;;;;;4976720;28;20228;-65
2023/04/10 03:42:17;;;;;;;42.73;31.13;;;4.00;99.90;;;;;;4976595;28;20241;-65
2023/04/10 03:44:43;;;;;;;46.30;32.43;;;4.10;99.90;;;;;;4976331;28;20205;-65
2023/04/10 03:47:08;;;;;;;45.27;32.33;;;4.10;99.90;;;;;;4976659;28;20215;-64
2023/04/10 03:49:34;;;;;;;41.67;32.37;;;4.10;99.90;;;;;;4975043;28;20200;-65
2023/04/10 03:52:00;;;;;;;45.67;31.87;;;4.10;99.90;;;;;;4977037;28;20829;-65
2023/04/10 03:54:25;;;;;;;46.17;33.37;;;4.00;99.90;;;;;;4976179;28;20293;-65
2023/04/10 03:56:50;;;;;;;49.10;33.07;;;4.00;99.90;;;;;;4976003;28;20623;-65
2023/04/10 03:59:16;;;;;;;47.13;31.73;;;4.00;99.90;;;;;;4976703;28;20196;-64
2023/04/10 04:01:41;;;;;;;42.43;31.97;;;4.00;99.90;;;;;;4974638;28;20224;-64
2023/04/10 04:04:07;;;;;;;46.20;34.40;;;4.10;99.90;;;;;;4976585;28;20193;-64
2023/04/10 04:06:32;;;;;;;43.17;30.50;;;4.10;99.90;;;;;;4975892;28;20682;-64
2023/04/10 04:08:58;;;;;;;45.37;33.47;;;4.10;99.90;;;;;;4976120;28;20239;-65
2023/04/10 04:11:23;;;;;;;46.20;33.80;;;4.10;99.90;;;;;;4976315;28;20236;-65
2023/04/10 04:13:49;;;;;;;43.43;31.37;;;4.10;99.90;;;;;;4976247;28;20213;-65
2023/04/10 04:16:14;;;;;;;44.23;31.90;;;4.10;99.90;;;;;;4974721;28;20212;-65
2023/04/10 04:18:40;;;;;;;40.77;30.63;;;4.10;99.90;;;;;;4976400;28;20204;-66
2023/04/10 04:21:07;;;;;;;42.20;28.63;;;4.10;99.90;;;;;;4976037;28;20690;-65
2023/04/10 04:23:33;;;;;;;40.80;29.87;;;4.10;99.90;;;;;;4976318;28;20204;-65
2023/04/10 04:25:58;;;;;;;45.43;31.13;;;4.10;99.90;;;;;;4974377;28;20251;-66
2023/04/10 04:28:24;;;;;;;43.37;31.83;;;4.00;99.90;;;;;;4976320;28;20728;-66
2023/04/10 04:30:49;;;;;;;41.17;29.77;;;4.00;99.90;;;;;;4976264;28;20247;-66
2023/04/10 04:33:15;;;;;;;41.77;31.93;;;3.90;99.90;;;;;;4976092;28;20302;-66
2023/04/10 04:35:40;;;;;;;44.33;31.03;;;3.90;99.90;;;;;;4976253;28;20215;-66
2023/04/10 04:38:06;;;;;;;45.10;32.37;;;3.90;99.90;;;;;;4976182;28;20201;-66
2023/04/10 04:40:31;;;;;;;41.80;31.20;;;3.90;99.90;;;;;;4975975;28;20746;-65
2023/04/10 04:42:57;;;;;;;42.27;30.47;;;4.00;99.90;;;;;;4974742;28;20200;-66
2023/04/10 04:45:23;;;;;;;42.40;30.40;;;4.00;99.90;;;;;;4975906;28;20251;-65
2023/04/10 04:47:49;;;;;;;41.07;30.67;;;4.00;99.90;;;;;;4976003;28;20388;-65
2023/04/10 04:50:14;;;;;;;43.63;32.33;;;4.10;99.90;;;;;;4976314;28;20880;-65
2023/04/10 04:52:40;;;;;;;39.23;31.73;;;4.10;99.90;;;;;;4976589;28;20196;-66
2023/04/10 04:55:06;;;;;;;40.83;30.00;;;4.20;99.90;;;;;;4976830;28;20201;-66
2023/04/10 04:57:31;;;;;;;43.13;31.03;;;4.30;99.90;;;;;;4978952;28;20607;-66
2023/04/10 04:59:57;;;;;;;42.37;32.13;;;4.40;99.90;;;;;;4979566;28;20205;-66
2023/04/10 05:02:22;;;;;;;43.67;31.37;;;4.50;99.90;;;;;;4979967;28;20259;-65
2023/04/10 05:04:48;;;;;;;42.40;32.57;;;4.50;99.90;;;;;;4979710;28;20188;-65
2023/04/10 05:07:13;;;;;;;47.07;32.90;;;4.60;99.90;;;;;;4978110;28;20582;-67
2023/04/10 05:09:39;;;;;;;43.70;32.60;;;4.70;99.90;;;;;;4979648;28;20207;-65
2023/04/10 05:12:04;;;;;;;46.73;31.53;;;4.70;99.90;;;;;;4978644;28;20200;-65
2023/04/10 05:14:30;;;;;;;42.83;31.33;;;4.80;99.90;;;;;;4979650;28;20213;-66
2023/04/10 05:16:56;;;;;;;42.13;29.43;;;4.80;99.90;;;;;;4979440;28;20216;-66
2023/04/10 05:19:21;;;;;;;42.83;31.50;;;4.90;99.90;;;;;;4979225;28;20212;-66
2023/04/10 05:21:47;;;;;;;40.23;30.93;;;4.90;99.90;;;;;;4977770;28;20834;-66
2023/04/10 05:24:12;;;;;;;41.17;31.83;;;5.00;99.90;;;;;;4977900;28;20211;-66
2023/04/10 05:26:38;;;;;;;43.37;32.63;;;5.10;99.90;;;;;;4979442;28;20311;-66
2023/04/10 05:29:03;;;;;;;40.93;31.70;;;5.30;99.90;;;;;;4979084;28;20208;-65
2023/04/10 05:31:29;;;;;;;37.07;29.63;;;5.50;99.90;;;;;;4979357;28;20201;-65
2023/04/10 05:33:54;;;;;;;49.50;33.67;;;5.60;99.90;;;;;;4976297;28;20885;-66
2023/04/10 05:36:20;;;;;;;40.70;33.03;;;5.70;99.90;;;;;;4977484;28;20645;-65
2023/04/10 05:38:45;;;;;;;39.37;31.30;;;5.90;99.90;;;;;;4977891;28;20283;-66
2023/04/10 05:41:11;;;;;;;41.87;31.10;;;6.00;99.90;;;;;;4977553;28;20209;-65
2023/04/10 05:43:36;;;;;;;39.17;30.37;;;6.10;99.90;;;;;;4977773;28;20201;-65
2023/04/10 05:46:02;;;;;;;35.53;27.17;;;6.30;99.90;;;;;;4975873;28;20575;-66
2023/04/10 05:48:27;;;;;;;36.40;26.73;;;6.50;99.90;;;;;;4975738;28;20201;-65
2023/04/10 05:50:53;;;;;;;40.00;27.67;;;6.60;99.90;;;;;;4977665;28;20213;-65
2023/04/10 05:53:19;;;;;;;38.33;28.77;;;6.70;99.90;;;;;;4977540;28;20208;-65
2023/04/10 05:55:50;;;;;;;34.97;25.13;;;6.90;99.90;;;;;;4977586;28;20251;-65
2023/04/10 05:58:15;;;;;;;34.30;26.57;;;7.00;99.90;;;;;;4976973;28;20280;-65
2023/04/10 06:00:41;;;;;;;34.63;25.70;;;7.30;99.90;;;;;;4975590;28;20308;-66
2023/04/10 06:03:06;;;;;;;32.87;24.47;;;7.50;99.90;;;;;;4976822;28;20221;-66
2023/04/10 06:05:32;;;;;;;31.73;24.13;;;7.70;99.90;;;;;;4977449;28;20216;-65
2023/04/10 06:07:57;;;;;;;28.47;22.77;;;7.80;99.90;;;;;;4977083;28;20209;-65
2023/04/10 06:10:23;;;;;;;29.20;23.47;;;7.80;99.90;;;;;;4977400;28;20209;-65
2023/04/10 06:12:48;;;;;;;31.77;24.23;;;8.00;99.90;;;;;;4977374;28;20741;-66
2023/04/10 06:15:14;;;;;;;31.63;24.07;;;8.10;99.90;;;;;;4975272;28;20816;-68
2023/04/10 06:17:43;;;;;;;29.93;22.70;;;8.30;99.90;;;;;;4977577;28;20201;-66
2023/04/10 06:20:09;;;;;;;33.30;23.90;;;8.50;99.90;;;;;;4977231;28;21161;-67
2023/04/10 06:22:34;;;;;;;26.03;20.93;;;8.60;99.90;;;;;;4970628;28;20198;-65
2023/04/10 06:25:00;;;;;;;27.93;20.73;;;8.70;99.90;;;;;;4969844;28;20928;-65
2023/04/10 06:27:26;;;;;;;24.80;19.83;;;8.80;99.90;;;;;;4977443;28;20211;-67
2023/04/10 06:29:52;;;;;;;26.13;21.50;;;8.80;99.90;;;;;;4977442;28;20983;-67
2023/04/10 06:32:18;;;;;;;29.33;21.93;;;8.80;99.90;;;;;;4943033;28;994802;-66
2023/04/10 06:34:43;;;;;;;28.27;20.30;;;8.80;99.90;;;;;;4978227;28;20201;-66
2023/04/10 06:37:09;;;;;;;30.87;20.77;;;8.80;99.90;;;;;;4975821;28;20252;-66
2023/04/10 06:39:34;;;;;;;30.97;21.73;;;8.90;99.90;;;;;;4977919;28;20202;-67
2023/04/10 06:42:01;;;;;;;27.17;22.33;;;9.00;99.90;;;;;;4977672;28;20305;-66
2023/04/10 06:44:26;;;;;;;31.80;24.80;;;9.00;99.90;;;;;;4977264;28;20207;-66
2023/04/10 06:46:52;;;;;;;27.77;23.57;;;9.10;99.90;;;;;;4980995;28;20260;-67
2023/04/10 06:49:17;;;;;;;33.60;22.93;;;9.20;99.90;;;;;;4972448;28;20202;-66
2023/04/10 06:51:44;;;;;;;28.57;21.90;;;9.30;99.90;;;;;;4977966;28;20209;-66
2023/04/10 06:54:10;;;;;;;38.13;27.77;;;9.40;99.90;;;;;;4977605;28;20264;-66
2023/04/10 06:56:35;;;;;;;34.00;25.20;;;9.40;99.90;;;;;;4977202;28;20676;-66
2023/04/10 06:59:02;;;;;;;30.33;25.00;;;9.50;99.90;;;;;;4977154;28;20217;-65
2023/04/10 07:01:27;;;;;;;33.40;24.57;;;9.40;99.90;;;;;;4976387;28;20218;-66
2023/04/10 07:03:53;;;;;;;34.97;24.73;;;9.40;99.90;;;;;;4960714;28;20565;-66
2023/04/10 07:06:18;;;;;;;36.87;28.10;;;9.40;99.90;;;;;;4977442;28;20963;-66
2023/04/10 07:08:44;;;;;;;40.47;27.93;;;9.40;99.90;;;;;;4965325;28;20245;-65
2023/04/10 07:11:09;;;;;;;34.57;26.50;;;9.50;99.90;;;;;;4970439;28;20206;-65
2023/04/10 07:13:37;;;;;;;36.63;26.53;;;9.50;99.90;;;;;;4965558;28;20218;-66
2023/04/10 07:16:03;;;;;;;31.30;23.73;;;9.50;99.90;;;;;;4965651;28;20592;-67
2023/04/10 07:18:29;;;;;;;35.57;27.47;;;9.60;99.90;;;;;;4967709;28;20968;-63
2023/04/10 07:20:54;;;;;;;30.63;23.00;;;9.60;99.90;;;;;;4967684;28;20206;-65
2023/04/10 07:23:21;;;;;;;36.37;26.57;;;9.60;99.90;;;;;;4968397;28;20203;-65
2023/04/10 07:25:46;;;;;;;32.60;25.07;;;9.70;99.90;;;;;;4966435;28;20204;-63
2023/04/10 07:28:12;;;;;;;35.27;26.60;;;9.80;99.90;;;;;;4966154;28;20203;-67
2023/04/10 07:30:37;;;;;;;31.57;26.30;;;9.90;99.90;;;;;;4967323;28;20267;-71
2023/04/10 07:33:03;;;;;;;34.93;27.60;;;9.90;99.90;;;;;;4965360;28;20241;-70
2023/04/10 07:35:28;;;;;;;40.43;29.53;;;10.10;99.90;;;;;;4967177;28;20286;-71
2023/04/10 07:37:54;;;;;;;41.20;30.23;;;10.20;99.90;;;;;;4969712;28;20465;-70
2023/04/10 07:40:19;;;;;;;36.57;28.13;;;10.30;99.90;;;;;;4973656;28;20941;-70
2023/04/10 07:42:45;;;;;;;40.80;29.73;;;10.30;99.90;;;;;;4963117;28;20731;-66
2023/04/10 07:45:11;;;;;;;37.20;29.70;;;10.40;99.90;;;;;;4962657;28;20203;-65
2023/04/10 07:47:36;;;;;;;42.00;29.30;;;10.40;99.90;;;;;;4964039;28;20200;-65
2023/04/10 07:50:02;;;;;;;40.50;29.13;;;10.50;99.90;;;;;;4963914;28;20253;-67
2023/04/10 07:52:28;;;;;;;43.47;31.70;;;10.50;99.90;;;;;;4966661;28;20249;-68
2023/04/10 07:54:53;;;;;;;37.50;28.30;;;10.50;99.90;;;;;;4966635;28;20234;-64
2023/04/10 07:57:19;;;;;;;35.27;29.10;;;10.70;99.90;;;;;;4968372;28;20819;-62
2023/04/10 07:59:44;;;;;;;39.17;29.23;;;10.70;99.90;;;;;;4967025;28;20715;-64
2023/04/10 08:02:10;;;;;;;42.90;29.50;;;10.80;99.90;;;;;;4964306;28;20229;-64
2023/04/10 08:04:36;;;;;;;38.47;27.53;;;10.90;99.90;;;;;;4971598;28;20703;-64
2023/04/10 08:07:01;;;;;;;47.47;30.73;;;11.10;99.90;;;;;;4967544;28;20741;-64
2023/04/10 08:09:27;;;;;;;40.43;27.47;;;11.20;99.90;;;;;;4966162;28;20204;-64
2023/04/10 08:11:52;;;;;;;36.10;28.17;;;11.40;99.90;;;;;;4970253;28;20858;-64
2023/04/10 08:14:18;;;;;;;37.43;27.27;;;11.40;99.90;;;;;;4966105;28;20267;-64
2023/04/10 08:16:43;;;;;;;36.60;27.50;;;11.50;99.90;;;;;;4963345;28;20227;-64
2023/04/10 08:19:09;;;;;;;33.23;25.87;;;11.60;99.90;;;;;;4966392;28;20208;-64
2023/04/10 08:21:34;;;;;;;36.57;26.97;;;11.60;99.90;;;;;;4965779;28;20332;-65
2023/04/10 08:24:01;;;;;;;34.90;26.83;;;11.70;99.90;;;;;;4966223;28;20204;-64
2023/04/10 08:26:28;;;;;;;34.77;26.60;;;11.80;99.90;;;;;;4964280;28;20632;-65
2023/04/10 08:28:55;;;;;;;34.00;27.13;;;12.10;99.90;;;;;;4966853;28;20833;-64
2023/04/10 08:31:22;;;;;;;31.17;25.67;;;12.10;99.90;;;;;;4963740;28;20200;-64
2023/04/10 08:33:48;;;;;;;33.90;25.63;;;12.20;99.90;;;;;;4966854;28;20753;-64
2023/04/10 08:36:15;;;;;;;32.57;25.13;;;12.40;99.90;;;;;;4966878;28;20221;-65
2023/04/10 08:38:44;;;;;;;31.77;25.27;;;12.40;99.90;;;;;;4966973;28;20203;-65
2023/04/10 08:41:14;;;;;;;33.47;25.33;;;12.40;99.90;;;;;;4965184;28;20683;-65
2023/04/10 08:43:42;;;;;;;33.00;23.73;;;12.30;99.90;;;;;;4966582;28;20205;-66
2023/04/10 08:46:07;;;;;;;30.10;22.93;;;12.30;99.90;;;;;;4965715;28;20307;-66
2023/04/10 08:48:59;;;;;;;32.37;25.17;;;12.40;99.90;;;;;;4966229;28;20308;-64
2023/04/10 08:51:31;;;;;;;31.90;25.07;;;12.60;99.90;;;;;;4965127;28;20659;-64
2023/04/10 08:54:05;;;;;;;28.33;23.70;;;12.80;99.90;;;;;;4964107;28;20211;-64
2023/04/10 08:56:33;;;;;;;34.77;26.70;;;12.90;99.90;;;;;;4965895;28;20235;-64
2023/04/10 08:59:01;;;;;;;28.50;24.17;;;13.00;99.90;;;;;;4966240;28;20209;-64
2023/04/10 09:01:27;;;;;;;34.03;24.50;;;13.20;99.90;;;;;;4960704;28;20197;-65
2023/04/10 09:03:52;;;;;;;34.60;25.50;;;13.30;99.90;;;;;;4966629;28;20754;-64
2023/04/10 09:06:18;;;;;;;32.67;24.80;;;13.30;99.90;;;;;;4967044;28;20208;-65
2023/04/10 09:08:43;;;;;;;34.43;26.13;;;13.50;99.90;;;;;;4966058;28;20263;-65
2023/04/10 09:11:11;;;;;;;32.37;25.57;;;13.60;99.90;;;;;;4966387;28;20205;-65
2023/04/10 09:13:40;;;;;;;31.53;23.07;;;13.70;99.90;;;;;;4965317;28;20213;-65
2023/04/10 09:16:07;;;;;;;32.90;21.87;;;13.70;99.90;;;;;;4974581;28;20211;-65
2023/04/10 09:18:40;;;;;;;26.97;20.20;;;13.70;99.90;;;;;;4966108;28;20214;-65
2023/04/10 09:21:07;;;;;;;33.03;23.90;;;13.70;99.90;;;;;;4969372;28;20197;-64
2023/04/10 09:23:32;;;;;;;19.17;16.03;;;13.70;99.90;;;;;;4967252;28;20220;-65
2023/04/10 09:25:58;;;;;;;22.57;17.23;;;13.60;99.90;;;;;;4966106;28;20214;-64
2023/04/10 09:28:23;;;;;;;25.13;17.40;;;13.60;99.90;;;;;;4961865;28;20217;-64
2023/04/10 09:30:49;;;;;;;23.10;18.63;;;13.70;99.90;;;;;;4967526;28;20721;-64
2023/04/10 09:33:22;;;;;;;27.37;20.43;;;13.90;99.90;;;;;;4963989;28;20229;-63
2023/04/10 09:35:48;;;;;;;23.67;18.00;;;14.10;99.90;;;;;;4966123;28;20725;-64
2023/04/10 09:38:16;;;;;;;24.43;19.03;;;14.20;99.90;;;;;;4970713;28;20251;-64
2023/04/10 09:40:42;;;;;;;26.30;19.87;;;14.20;99.90;;;;;;4968318;28;20201;-65
2023/04/10 09:43:25;;;;;;;26.23;19.17;;;14.30;99.90;;;;;;4969260;28;20633;-63
2023/04/10 09:45:56;;;;;;;24.90;18.67;;;14.30;99.90;;;;;;4967866;28;20205;-63
2023/04/10 09:48:23;;;;;;;23.33;17.80;;;14.40;99.90;;;;;;4969279;28;20290;-64
2023/04/10 09:50:49;;;;;;;26.07;18.20;;;14.50;99.90;;;;;;4969543;28;20201;-63
2023/04/10 09:53:19;;;;;;;24.10;17.63;;;14.60;99.90;;;;;;4969844;28;20801;-64
2023/04/10 09:55:47;;;;;;;22.20;17.17;;;14.80;99.90;;;;;;4967736;28;20220;-64
2023/04/10 09:58:13;;;;;;;25.20;17.10;;;14.90;99.90;;;;;;4970368;28;20542;-64
2023/04/10 10:00:45;;;;;;;22.37;16.83;;;14.90;99.90;;;;;;4966286;28;20800;-63
2023/04/10 10:03:19;;;;;;;23.47;17.80;;;15.00;99.90;;;;;;4975440;28;20646;-64
2023/04/10 10:05:48;;;;;;;24.07;15.83;;;14.90;99.90;;;;;;4967988;28;20594;-64
2023/04/10 10:08:15;;;;;;;24.30;17.87;;;14.80;99.90;;;;;;4969165;28;20200;-63
2023/04/10 10:10:46;;;;;;;19.73;15.20;;;14.90;99.90;;;;;;4967209;28;20280;-64
2023/04/10 10:13:28;;;;;;;21.93;15.43;;;15.20;99.90;;;;;;4972873;28;20206;-63
2023/04/10 10:16:03;;;;;;;21.63;15.90;;;15.10;99.90;;;;;;4968680;28;20300;-63
2023/04/10 10:18:44;;;;;;;14.67;11.83;;;15.20;99.90;;;;;;4969472;28;20221;-63
2023/04/10 10:21:13;;;;;;;15.23;10.47;;;15.60;99.90;;;;;;4965589;28;20766;-62
2023/04/10 10:23:41;;;;;;;13.93;11.07;;;15.60;99.90;;;;;;4971155;28;20401;-62
2023/04/10 10:26:08;;;;;;;15.17;11.47;;;15.80;99.80;;;;;;4949231;28;20236;-62
2023/04/10 10:28:35;;;;;;;14.20;11.03;;;16.10;99.70;;;;;;4967536;28;20569;-64
2023/04/10 10:31:02;;;;;;;16.53;10.63;;;16.10;98.70;;;;;;4965276;28;20201;-65
2023/04/10 10:33:29;;;;;;;13.07;9.90;;;16.20;98.10;;;;;;4971157;28;20240;-79
2023/04/10 10:35:59;;;;;;;16.20;10.97;;;16.30;98.30;;;;;;4978160;28;20220;-66
2023/04/10 10:38:26;;;;;;;14.67;11.67;;;16.20;97.70;;;;;;4972265;28;20212;-65
2023/04/10 10:41:16;;;;;;;15.23;11.57;;;16.30;97.90;;;;;;4964940;28;20204;-64
2023/04/10 10:44:07;;;;;;;13.03;10.60;;;16.30;98.00;;;;;;4966389;28;20217;-65
2023/04/10 10:46:50;;;;;;;12.43;9.77;;;16.50;97.50;;;;;;4966204;28;20206;-66
2023/04/10 10:49:16;;;;;;;12.53;10.13;;;16.70;96.70;;;;;;4966676;28;20211;-65
2023/04/10 10:51:43;;;;;;;12.03;9.70;;;16.80;96.50;;;;;;4964709;28;20675;-64
2023/04/10 10:54:41;;;;;;;13.97;10.47;;;17.10;96.30;;;;;;4966331;28;20236;-64
2023/04/10 10:57:45;;;;;;;10.33;8.80;;;17.30;97.30;;;;;;4939160;28;20220;-65
2023/04/10 11:00:11;;;;;;;11.77;10.50;;;17.20;95.50;;;;;;4967035;28;20212;-86
2023/04/10 11:02:36;;;;;;;15.63;10.30;;;17.20;96.30;;;;;;4949713;28;20272;-66
2023/04/10 11:05:02;;;;;;;13.73;9.83;;;17.70;94.80;;;;;;4969861;28;20201;-65
2023/04/10 11:08:06;;;;;;;13.83;10.17;;;17.70;94.00;;;;;;4970637;28;20204;-65
2023/04/10 11:11:04;;;;;;;13.70;10.27;;;17.70;93.40;;;;;;4969206;28;20209;-65
2023/04/10 11:13:30;;;;;;;10.97;9.60;;;18.00;93.50;;;;;;4974471;28;20201;-65
2023/04/10 11:15:57;;;;;;;11.60;9.47;;;18.00;92.60;;;;;;4977771;28;20218;-65
2023/04/10 11:18:45;;;;;;;11.37;9.90;;;18.10;92.90;;;;;;4969046;28;20210;-65
2023/04/10 11:21:21;;;;;;;11.17;8.97;;;18.00;93.00;;;;;;4967018;28;20206;-65
2023/04/10 11:23:51;;;;;;;12.37;9.83;;;18.50;92.80;;;;;;4964917;28;20213;-64
2023/04/10 11:29:04;;;;;;;11.43;8.83;;;18.60;91.40;;;;;;4966939;28;20213;-64
2023/04/10 11:31:31;;;;;;;10.90;8.83;;;18.20;91.40;;;;;;4967086;28;20358;-65
2023/04/10 11:33:57;;;;;;;10.90;9.20;;;18.70;91.00;;;;;;4966114;28;20230;-65
2023/04/10 11:36:23;;;;;;;11.40;8.57;;;18.70;90.10;;;;;;4965129;28;20230;-64
2023/04/10 11:38:57;;;;;;;10.80;8.93;;;18.80;89.90;;;;;;4969423;28;20684;-65
2023/04/10 11:41:27;;;;;;;12.40;8.87;;;18.70;89.60;;;;;;4969888;28;20218;-75
2023/04/10 11:43:53;;;;;;;10.90;8.40;;;19.00;89.80;;;;;;4963487;28;20236;-65
2023/04/10 11:46:19;;;;;;;9.03;8.13;;;18.70;88.50;;;;;;4966508;28;20691;-64
2023/04/10 11:48:45;;;;;;;10.33;8.47;;;19.10;87.70;;;;;;4967601;28;20203;-64
2023/04/10 11:51:13;;;;;;;10.33;8.60;;;19.30;87.30;;;;;;4967672;28;20226;-64
2023/04/10 11:53:39;;;;;;;9.60;7.77;;;19.70;86.20;;;;;;4966801;28;20291;-64
2023/04/10 11:56:13;;;;;;;10.93;8.57;;;19.80;82.50;;;;;;4966786;28;20601;-65
2023/04/10 11:58:38;;;;;;;8.00;7.17;;;19.80;82.10;;;;;;4967530;28;20720;-64
2023/04/10 12:01:04;;;;;;;11.07;8.77;;;20.20;81.80;;;;;;4965987;28;20203;-64
2023/04/10 12:03:41;;;;;;;10.00;8.20;;;19.90;80.80;;;;;;4966383;28;20228;-65
2023/04/10 12:06:11;;;;;;;10.67;8.97;;;20.20;80.50;;;;;;4966581;28;20230;-64
2023/04/10 12:08:50;;;;;;;9.27;8.23;;;19.70;82.10;;;;;;4970630;28;20201;-64
2023/04/10 12:11:22;;;;;;;9.70;8.57;;;20.30;80.90;;;;;;4962478;28;20204;-65
2023/04/10 12:13:51;;;;;;;10.40;8.43;;;20.80;80.20;;;;;;4966963;28;20215;-64
2023/04/10 12:16:16;;;;;;;11.17;9.47;;;20.60;79.40;;;;;;4965346;28;20682;-65
2023/04/10 12:18:44;;;;;;;12.43;9.47;;;21.30;79.60;;;;;;4964987;28;20231;-65
2023/04/10 12:21:10;;;;;;;11.30;8.90;;;21.50;77.00;;;;;;4966182;28;20211;-65
2023/04/10 12:23:38;;;;;;;11.63;9.10;;;21.90;75.10;;;;;;4966335;28;20211;-64
2023/04/10 12:26:09;;;;;;;10.93;9.43;;;21.90;73.30;;;;;;4965759;28;20733;-65
2023/04/10 12:28:36;;;;;;;9.30;8.33;;;21.80;71.90;;;;;;4964586;28;20217;-64
2023/04/10 12:31:02;;;;;;;11.30;8.43;;;21.50;70.60;;;;;;4966021;28;20213;-65
2023/04/10 12:33:28;;;;;;;10.67;8.60;;;21.80;69.50;;;;;;4965637;28;20239;-65
2023/04/10 12:35:53;;;;;;;9.83;8.87;;;21.60;70.70;;;;;;4962748;28;20229;-67
2023/04/10 12:38:36;;;;;;;8.60;7.73;;;21.90;67.30;;;;;;4965929;28;20208;-65
2023/04/10 12:41:02;;;;;;;10.53;7.50;;;22.10;66.50;;;;;;4966487;28;20209;-65
2023/04/10 12:43:48;;;;;;;9.07;7.47;;;22.60;65.50;;;;;;4966503;28;20213;-65